Time;durP1;ratioP1;P1;durP2;ratioP2;P2;SDS_P1;SDS_P2;PMS_P1;PMS_P2;Temp;Humidity;BMP_temperature;BMP_pressure;BME280_temperature;BME280_humidity;BME280_pressure;Samples;Min_cycle;Max_cycle;Signal;HPM_P1;HPM_P2
2022/10/17 00:00:39;;;;;;;17.80;11.70;;;;;;;2.01;70.58;101926.03;1684583;85;21069;-79
2022/10/17 00:03:05;;;;;;;17.12;11.65;;;;;;;1.98;70.62;101915.23;1673418;84;20985;-80
2022/10/17 00:05:32;;;;;;;14.68;11.28;;;;;;;1.95;70.59;101913.13;1669518;85;20967;-79
2022/10/17 00:07:58;;;;;;;16.52;11.50;;;;;;;1.92;70.59;101916.63;1643572;87;21960;-80
2022/10/17 00:10:26;;;;;;;17.32;12.50;;;;;;;1.89;70.61;101918.00;1643858;86;21018;-79
2022/10/17 00:12:53;;;;;;;17.70;12.73;;;;;;;1.89;70.76;101922.36;1643972;87;20982;-80
2022/10/17 00:15:21;;;;;;;18.50;11.63;;;;;;;1.88;70.81;101918.04;1641888;86;20972;-78
2022/10/17 00:17:49;;;;;;;15.55;11.22;;;;;;;1.86;70.84;101917.22;1643739;87;20881;-79
2022/10/17 00:20:17;;;;;;;16.12;11.83;;;;;;;1.86;70.77;101919.82;1643607;86;21010;-79
2022/10/17 00:22:43;;;;;;;16.73;12.20;;;;;;;1.84;70.80;101918.55;1643921;86;20968;-80
2022/10/17 00:25:11;;;;;;;18.02;12.15;;;;;;;1.84;70.77;101913.34;1643557;87;21025;-79
2022/10/17 00:27:39;;;;;;;18.25;12.78;;;;;;;1.84;70.71;101919.86;1643561;87;21450;-79
2022/10/17 00:30:07;;;;;;;16.48;12.05;;;;;;;1.82;70.68;101916.39;1643723;87;21029;-79
2022/10/17 00:32:34;;;;;;;17.55;12.85;;;;;;;1.84;70.80;101915.95;1643676;87;21940;-79
2022/10/17 00:35:01;;;;;;;18.60;12.03;;;;;;;1.85;70.78;101918.11;1647653;84;21106;-79
2022/10/17 00:37:30;;;;;;;16.85;12.33;;;;;;;1.83;70.67;101915.50;1615843;88;20962;-80
2022/10/17 00:39:56;;;;;;;16.93;11.93;;;;;;;1.79;70.57;101916.91;1609102;86;21026;-79
2022/10/17 00:42:25;;;;;;;20.72;12.53;;;;;;;1.75;70.57;101919.16;1624256;86;21056;-81
2022/10/17 00:45:09;;;;;;;18.60;13.20;;;;;;;1.71;70.60;101920.94;1625553;86;21952;-80
2022/10/17 00:47:35;;;;;;;;;;;;;;;1.70;70.68;101920.53;1673195;86;21532;-81
2022/10/17 00:50:03;;;;;;;18.55;12.68;;;;;;;1.68;70.75;101924.47;1670218;85;20153;-80
2022/10/17 00:52:31;;;;;;;20.15;13.25;;;;;;;1.66;70.77;101918.88;1671094;85;21014;-80
2022/10/17 00:55:20;;;;;;;24.10;14.70;;;;;;;1.64;70.77;101922.82;1670770;85;20969;-80
2022/10/17 00:57:47;;;;;;;21.02;13.83;;;;;;;1.62;70.81;101919.36;1657421;84;21935;-79
2022/10/17 01:00:15;;;;;;;19.12;13.78;;;;;;;1.61;70.79;101923.30;1644260;86;21468;-81
2022/10/17 01:02:41;;;;;;;23.38;13.68;;;;;;;1.59;70.74;101918.13;1648769;86;21086;-80
2022/10/17 01:05:08;;;;;;;21.10;14.05;;;;;;;1.56;70.72;101915.58;1654409;86;21007;-79
2022/10/17 01:07:38;;;;;;;26.77;14.18;;;;;;;1.54;70.75;101914.72;1653684;86;21090;-80
2022/10/17 01:10:07;;;;;;;22.70;14.38;;;;;;;1.53;70.83;101918.66;1654395;86;21524;-80
2022/10/17 01:12:50;;;;;;;21.73;13.72;;;;;;;1.51;70.84;101918.69;1654427;86;21047;-81
2022/10/17 01:15:45;;;;;;;21.55;13.70;;;;;;;1.49;70.85;101928.28;1675780;84;20990;-82
2022/10/17 01:18:43;;;;;;;26.62;14.07;;;;;;;1.48;70.90;101929.17;1682112;85;21062;-81
2022/10/17 01:22:04;;;;;;;20.70;13.98;;;;;;;1.46;70.99;101931.39;1662812;84;20982;-80
2022/10/17 01:24:36;;;;;;;21.02;14.58;;;;;;;1.45;71.07;101938.34;1630498;88;21821;-81
2022/10/17 01:27:30;;;;;;;20.92;14.28;;;;;;;1.43;71.08;101942.25;1671489;83;21034;-80
2022/10/17 01:30:10;;;;;;;19.87;13.55;;;;;;;1.44;71.05;101945.71;1708052;83;20978;-79
2022/10/17 01:32:59;;;;;;;20.40;13.70;;;;;;;1.39;70.92;101949.70;1659845;83;21018;-79
2022/10/17 01:35:50;;;;;;;20.95;13.62;;;;;;;1.35;70.85;101948.46;1635713;86;21070;-80
2022/10/17 01:38:28;;;;;;;20.12;12.88;;;;;;;1.31;70.79;101950.71;1636158;86;23179;-80
2022/10/17 01:41:28;;;;;;;20.97;13.93;;;;;;;1.27;70.74;101954.26;1624110;87;21034;-80
2022/10/17 01:43:59;;;;;;;24.77;14.60;;;;;;;1.24;70.70;101950.38;1574382;91;21480;-80
2022/10/17 01:46:40;;;;;;;21.52;15.03;;;;;;;1.20;70.77;101963.03;1654815;86;21122;-80
2022/10/17 01:49:09;;;;;;;26.82;15.90;;;;;;;1.19;70.90;101967.39;1656215;85;21007;-80
2022/10/17 01:51:41;;;;;;;22.07;15.03;;;;;;;1.21;70.97;101964.75;1632585;88;21872;-79
2022/10/17 01:54:45;;;;;;;23.65;15.00;;;;;;;1.20;70.97;101973.00;1655343;86;21002;-79
2022/10/17 01:57:42;;;;;;;24.92;14.33;;;;;;;1.19;70.99;101970.43;1633902;86;21074;-80
2022/10/17 02:00:13;;;;;;;19.90;13.75;;;;;;;1.16;71.09;101975.25;1654787;86;21044;-79
2022/10/17 02:02:40;;;;;;;20.27;14.20;;;;;;;1.14;71.23;101979.59;1651649;86;21409;-78
2022/10/17 02:05:07;;;;;;;20.52;14.58;;;;;;;1.14;71.26;101984.35;1645144;86;21920;-80
2022/10/17 02:07:34;;;;;;;19.82;14.23;;;;;;;1.13;71.24;101985.23;1644193;87;21519;-80
2022/10/17 02:10:03;;;;;;;19.50;14.25;;;;;;;1.11;71.21;101992.22;1644331;87;20985;-80
2022/10/17 02:12:43;;;;;;;23.87;16.05;;;;;;;1.11;71.24;101999.16;1644091;87;21045;-80
2022/10/17 02:15:41;;;;;;;24.10;16.15;;;;;;;1.08;71.18;102002.67;1643675;86;21008;-79
2022/10/17 02:18:25;;;;;;;24.90;16.42;;;;;;;1.05;71.10;102006.60;1644101;86;22798;-78
2022/10/17 02:21:08;;;;;;;25.92;16.57;;;;;;;1.02;71.08;102006.66;1643655;87;21460;-81
2022/10/17 02:23:55;;;;;;;24.18;16.25;;;;;;;0.99;71.14;102001.50;1644470;86;21065;-80
2022/10/17 02:26:32;;;;;;;27.02;17.27;;;;;;;0.97;71.15;101998.07;1644966;86;21113;-81
2022/10/17 02:29:08;;;;;;;26.33;17.15;;;;;;;0.96;71.16;101998.92;1616475;87;21001;-81
2022/10/17 02:31:53;;;;;;;27.37;16.05;;;;;;;0.94;71.16;101996.79;1621945;88;21924;-80
2022/10/17 02:34:36;;;;;;;27.87;17.80;;;;;;;0.93;71.20;102000.27;1629067;88;21042;-80
2022/10/17 02:37:05;;;;;;;24.07;15.72;;;;;;;0.93;71.22;101995.52;1628936;86;21098;-81
2022/10/17 02:39:32;;;;;;;22.05;15.38;;;;;;;0.94;71.22;101998.53;1620512;86;21482;-80
2022/10/17 02:42:01;;;;;;;24.10;15.98;;;;;;;0.92;71.23;101997.25;1627874;86;21472;-81
2022/10/17 02:44:28;;;;;;;22.87;16.00;;;;;;;0.93;71.17;101996.37;1650242;86;21769;-80
2022/10/17 02:47:24;;;;;;;25.68;17.05;;;;;;;0.92;71.15;101990.75;1650229;85;21510;-80
2022/10/17 02:49:55;;;;;;;28.90;17.80;;;;;;;0.90;71.09;101989.06;1597653;89;21065;-80
2022/10/17 02:52:35;;;;;;;36.55;19.30;;;;;;;0.87;71.13;101996.48;1638498;86;20995;-80
2022/10/17 02:55:16;;;;;;;35.80;19.50;;;;;;;0.84;71.14;101998.66;1652192;86;21001;-79
2022/10/17 02:58:05;;;;;;;39.70;21.37;;;;;;;0.82;71.21;101999.13;1658438;85;22316;-80
2022/10/17 03:00:32;;;;;;;44.03;23.42;;;;;;;0.78;71.31;101996.16;1651926;86;21458;-80
2022/10/17 03:02:59;;;;;;;52.70;24.72;;;;;;;0.78;71.50;101999.20;1657037;85;20980;-80
2022/10/17 03:05:28;;;;;;;72.55;24.05;;;;;;;0.78;71.57;101998.75;1668657;85;21011;-80
2022/10/17 03:07:55;;;;;;;111.28;26.82;;;;;;;0.78;71.58;101997.89;1651355;86;21083;-80
2022/10/17 03:10:23;;;;;;;106.70;30.57;;;;;;;0.75;71.61;101997.47;1651335;86;22840;-81
2022/10/17 03:12:52;;;;;;;145.22;31.17;;;;;;;0.72;71.70;101995.36;1628827;87;21528;-80
2022/10/17 03:15:19;;;;;;;94.75;29.67;;;;;;;0.69;71.80;101994.97;1604598;87;21009;-81
2022/10/17 03:17:47;;;;;;;113.95;30.32;;;;;;;0.67;71.92;102000.60;1629311;86;21025;-81
2022/10/17 03:20:14;;;;;;;98.27;29.57;;;;;;;0.66;72.03;102000.63;1648140;87;21029;-79
2022/10/17 03:22:41;;;;;;;96.28;30.57;;;;;;;0.65;72.17;102001.52;1648182;86;21925;-81
2022/10/17 03:25:09;;;;;;;84.85;30.82;;;;;;;0.63;72.30;101996.77;1650449;85;21542;-81
2022/10/17 03:27:35;;;;;;;89.70;29.50;;;;;;;0.63;72.41;101990.27;1648014;87;21447;-80
2022/10/17 03:30:04;;;;;;;79.58;28.42;;;;;;;0.63;72.44;101994.17;1648989;85;21148;-80
2022/10/17 03:32:33;;;;;;;126.55;28.52;;;;;;;0.58;72.46;101992.95;1648124;86;20976;-80
2022/10/17 03:35:00;;;;;;;127.32;28.25;;;;;;;0.53;72.51;101992.13;1648194;86;21876;-81
2022/10/17 03:37:26;;;;;;;98.67;29.23;;;;;;;0.45;72.55;101991.35;1648038;87;21017;-80
2022/10/17 03:39:53;;;;;;;104.60;29.45;;;;;;;0.40;72.71;101987.96;1653609;85;21036;-80
2022/10/17 03:42:19;;;;;;;114.60;30.12;;;;;;;0.39;72.85;101991.45;1675507;84;20973;-80
2022/10/17 03:44:47;;;;;;;111.60;32.50;;;;;;;0.39;73.07;101988.41;1675486;85;21009;-79
2022/10/17 03:47:13;;;;;;;95.72;31.50;;;;;;;0.42;73.17;101992.26;1677862;85;21980;-80
2022/10/17 03:49:40;;;;;;;127.55;33.33;;;;;;;0.41;73.19;101999.64;1675369;85;21006;-80
2022/10/17 03:52:14;;;;;;;79.07;33.55;;;;;;;0.42;73.31;101994.86;1675523;85;20997;-79
2022/10/17 03:54:40;;;;;;;87.00;33.58;;;;;;;0.43;73.39;101991.38;1656165;85;20977;-80
2022/10/17 03:57:07;;;;;;;72.00;31.82;;;;;;;0.43;73.45;101990.52;1648381;87;21077;-79
2022/10/17 03:59:35;;;;;;;54.83;29.50;;;;;;;0.43;73.50;101990.52;1647976;87;22575;-79
2022/10/17 04:02:03;;;;;;;93.55;32.35;;;;;;;0.42;73.55;101994.00;1648022;86;21032;-81
2022/10/17 04:04:30;;;;;;;74.20;32.93;;;;;;;0.38;73.55;101987.95;1655610;85;21010;-80
2022/10/17 04:06:57;;;;;;;61.25;31.25;;;;;;;0.35;73.63;101982.80;1622176;88;21027;-80
2022/10/17 04:09:25;;;;;;;89.47;33.30;;;;;;;0.35;73.75;101985.40;1597833;89;21061;-79
2022/10/17 04:11:56;;;;;;;84.07;32.63;;;;;;;0.33;73.75;101987.16;1655090;85;21828;-79
2022/10/17 04:14:23;;;;;;;74.47;32.55;;;;;;;0.33;73.83;101994.96;1656677;86;21085;-79
2022/10/17 04:16:52;;;;;;;79.77;33.30;;;;;;;0.34;73.92;101991.92;1656108;86;20978;-81
2022/10/17 04:19:20;;;;;;;63.78;30.97;;;;;;;0.35;73.95;101991.90;1656083;85;21018;-80
2022/10/17 04:21:47;;;;;;;61.18;29.15;;;;;;;0.35;73.99;101997.54;1657474;85;21058;-78
2022/10/17 04:24:15;;;;;;;70.60;30.12;;;;;;;0.33;74.02;102007.95;1628647;87;22329;-79
2022/10/17 04:26:44;;;;;;;63.02;30.95;;;;;;;0.32;74.10;102007.53;1651696;86;21212;-79
2022/10/17 04:29:12;;;;;;;66.62;31.23;;;;;;;0.31;74.16;102005.81;1651437;86;20971;-79
2022/10/17 04:31:40;;;;;;;87.20;31.75;;;;;;;0.33;74.20;102004.50;1650289;86;21426;-79
2022/10/17 04:34:08;;;;;;;66.55;29.87;;;;;;;0.34;74.33;102003.17;1650842;86;20991;-79
2022/10/17 04:36:36;;;;;;;50.48;25.68;;;;;;;0.35;74.37;102004.03;1651388;86;22376;-79
2022/10/17 04:39:04;;;;;;;51.08;26.57;;;;;;;0.37;74.45;102000.53;1632520;86;20992;-78
2022/10/17 04:41:33;;;;;;;49.95;26.17;;;;;;;0.37;74.46;102003.58;1620005;88;21017;-78
2022/10/17 04:44:01;;;;;;;47.05;26.33;;;;;;;0.37;74.49;101997.08;1656739;86;20976;-79
2022/10/17 04:46:28;;;;;;;45.10;27.07;;;;;;;0.36;74.52;101992.31;1656721;86;20972;-79
2022/10/17 04:48:55;;;;;;;40.17;25.17;;;;;;;0.37;74.62;101999.23;1657153;85;22251;-79
2022/10/17 04:51:21;;;;;;;44.38;28.35;;;;;;;0.39;74.68;102000.54;1656813;86;21001;-79
2022/10/17 04:53:49;;;;;;;167.68;103.72;;;;;;;0.43;74.81;102006.97;1682955;83;21058;-78
2022/10/17 04:56:18;;;;;;;142.30;81.60;;;;;;;0.48;74.90;102014.30;1701176;83;21026;-78
2022/10/17 04:58:45;;;;;;;179.45;113.65;;;;;;;0.53;74.98;102024.19;1713401;83;21042;-78
2022/10/17 05:01:17;;;;;;;217.87;139.50;;;;;;;0.55;75.07;102035.42;1712961;83;21939;-78
2022/10/17 05:03:45;;;;;;;193.23;123.77;;;;;;;0.61;75.18;102037.55;1677301;85;21033;-79
2022/10/17 05:06:21;;;;;;;111.42;69.15;;;;;;;0.67;75.21;102039.61;1671888;85;21483;-78
2022/10/17 05:08:49;;;;;;;60.92;39.18;;;;;;;0.72;75.21;102034.37;1672222;84;20986;-79
2022/10/17 05:11:26;;;;;;;47.23;30.77;;;;;;;0.77;75.19;102032.15;1671898;85;20994;-79
2022/10/17 05:13:59;;;;;;;43.10;29.02;;;;;;;0.81;75.14;102028.62;1644252;87;21854;-79
2022/10/17 05:16:27;;;;;;;47.78;29.40;;;;;;;0.85;75.13;102026.82;1644973;87;21006;-78
2022/10/17 05:18:56;;;;;;;43.83;28.38;;;;;;;0.89;75.16;102035.47;1626496;86;21155;-78
2022/10/17 05:21:24;;;;;;;203.45;104.60;;;;;;;0.94;75.23;102044.91;1626518;87;21063;-79
2022/10/17 05:23:52;;;;;;;173.28;81.87;;;;;;;1.01;75.31;102045.27;1594454;89;21483;-79
2022/10/17 05:26:19;;;;;;;74.58;41.25;;;;;;;1.09;75.33;102044.73;1623411;87;21708;-79
2022/10/17 05:28:45;;;;;;;48.17;29.63;;;;;;;1.15;75.34;102041.16;1596802;88;21032;-80
2022/10/17 05:31:13;;;;;;;41.20;25.00;;;;;;;1.23;75.37;102040.63;1622921;88;21014;-79
2022/10/17 05:33:41;;;;;;;34.13;23.22;;;;;;;1.31;75.42;102039.22;1600946;89;21005;-80
2022/10/17 05:36:08;;;;;;;36.42;23.67;;;;;;;1.38;75.49;102044.77;1623179;88;21033;-79
2022/10/17 05:38:35;;;;;;;35.58;23.38;;;;;;;1.46;75.53;102054.63;1601793;86;21860;-79
2022/10/17 05:41:04;;;;;;;29.30;19.20;;;;;;;1.55;75.59;102060.14;1649481;85;21040;-79
2022/10/17 05:43:33;;;;;;;32.58;22.13;;;;;;;1.64;75.63;102062.16;1657871;85;20992;-78
2022/10/17 05:46:03;;;;;;;29.60;21.10;;;;;;;1.71;75.65;102067.67;1669114;84;21500;-78
2022/10/17 05:48:32;;;;;;;36.77;23.60;;;;;;;1.79;75.68;102062.34;1649812;87;20998;-78
2022/10/17 05:51:01;;;;;;;35.98;23.70;;;;;;;1.87;75.72;102055.27;1649586;87;22305;-78
2022/10/17 05:53:33;;;;;;;33.35;22.37;;;;;;;1.98;75.83;102059.00;1626362;88;20974;-79
2022/10/17 05:56:04;;;;;;;33.63;22.70;;;;;;;2.09;75.91;102059.67;1599857;89;21001;-78
2022/10/17 05:58:33;;;;;;;33.63;22.15;;;;;;;2.21;75.99;102057.28;1648640;86;21157;-78
2022/10/17 06:01:05;;;;;;;28.30;20.48;;;;;;;2.34;76.09;102054.03;1648232;87;21409;-79
2022/10/17 06:03:32;;;;;;;31.10;21.97;;;;;;;2.46;76.15;102060.31;1640849;86;21885;-78
2022/10/17 06:06:07;;;;;;;30.00;21.20;;;;;;;2.59;76.17;102069.61;1643907;87;20885;-79
2022/10/17 06:08:34;;;;;;;32.90;21.82;;;;;;;2.72;76.26;102071.11;1645344;84;21008;-74
2022/10/17 06:11:02;;;;;;;32.83;22.93;;;;;;;2.85;76.29;102068.66;1671265;84;21486;-78
2022/10/17 06:13:31;;;;;;;32.85;21.73;;;;;;;2.99;76.38;102071.00;1671300;85;20981;-77
2022/10/17 06:15:59;;;;;;;30.92;22.48;;;;;;;3.15;76.50;102074.13;1671494;84;21827;-78
2022/10/17 06:18:28;;;;;;;34.45;23.92;;;;;;;3.31;76.60;102072.91;1671245;84;20999;-78
2022/10/17 06:21:09;;;;;;;38.48;26.70;;;;;;;3.48;76.67;102076.91;1654300;85;21024;-79
2022/10/17 06:23:37;;;;;;;42.40;29.70;;;;;;;3.63;76.67;102072.17;1644133;87;21032;-77
2022/10/17 06:26:08;;;;;;;55.48;34.98;;;;;;;3.80;76.72;102069.16;1642386;87;21505;-80
2022/10/17 06:28:35;;;;;;;44.83;31.77;;;;;;;3.94;76.71;102070.98;1643949;87;22543;-78
2022/10/17 06:31:06;;;;;;;44.93;30.77;;;;;;;4.09;76.61;102076.73;1643917;86;21013;-78
2022/10/17 06:33:32;;;;;;;42.60;28.47;;;;;;;4.21;76.58;102081.64;1628243;87;20961;-77
2022/10/17 06:36:00;;;;;;;49.48;31.80;;;;;;;4.33;76.55;102082.62;1645550;86;21097;-77
2022/10/17 06:38:26;;;;;;;35.63;24.25;;;;;;;4.47;76.53;102088.37;1644503;86;21077;-79
2022/10/17 06:41:07;;;;;;;33.13;22.27;;;;;;;4.64;76.59;102094.92;1662012;86;21805;-78
2022/10/17 06:43:36;;;;;;;30.02;20.77;;;;;;;4.80;76.65;102094.42;1654284;85;21103;-76
2022/10/17 06:46:25;;;;;;;32.17;21.45;;;;;;;4.98;76.63;102102.22;1671717;85;21021;-76
2022/10/17 06:48:55;;;;;;;30.85;21.75;;;;;;;5.15;76.49;102113.53;1669373;84;21017;-78
2022/10/17 06:51:25;;;;;;;32.55;20.68;;;;;;;5.30;76.45;102114.37;1670731;85;21085;-76
2022/10/17 06:53:53;;;;;;;26.25;19.82;;;;;;;5.46;76.48;102114.78;1666096;85;22486;-77
2022/10/17 06:56:38;;;;;;;29.20;20.43;;;;;;;5.66;76.49;102105.84;1643918;87;20957;-78
2022/10/17 06:59:09;;;;;;;28.55;19.57;;;;;;;5.83;76.26;102105.77;1625316;87;20987;-78
2022/10/17 07:01:38;;;;;;;25.17;17.40;;;;;;;5.98;76.21;102102.67;1643787;86;20991;-77
2022/10/17 07:04:05;;;;;;;25.82;18.67;;;;;;;6.16;76.01;102094.66;1646672;86;21007;-77
2022/10/17 07:06:33;;;;;;;23.98;17.90;;;;;;;6.29;75.70;102092.89;1631576;88;22730;-78
2022/10/17 07:09:05;;;;;;;24.92;17.52;;;;;;;6.43;75.42;102088.92;1653839;86;20991;-80
2022/10/17 07:11:33;;;;;;;25.57;19.73;;;;;;;6.57;75.21;102088.00;1632775;86;21015;-79
2022/10/17 07:14:02;;;;;;;32.10;21.15;;;;;;;6.71;74.89;102079.16;1636274;86;40265;-80
2022/10/17 07:16:30;;;;;;;30.55;19.37;;;;;;;6.84;74.51;102080.42;1648900;86;21035;-80
2022/10/17 07:18:59;;;;;;;25.05;17.98;;;;;;;6.97;74.25;102083.47;1681514;85;21921;-78
2022/10/17 07:21:26;;;;;;;23.02;16.80;;;;;;;7.13;74.05;102075.84;1681855;85;21034;-77
2022/10/17 07:23:53;;;;;;;25.72;18.95;;;;;;;7.27;73.68;102072.26;1681680;84;21112;-79
2022/10/17 07:26:19;;;;;;;22.13;16.55;;;;;;;7.40;73.35;102072.62;1682246;85;20998;-78
2022/10/17 07:28:51;;;;;;;23.57;17.77;;;;;;;7.56;73.19;102070.27;1657698;86;21050;-79
2022/10/17 07:31:21;;;;;;;21.23;16.52;;;;;;;7.73;72.77;102076.56;1682386;85;21821;-79
2022/10/17 07:33:48;;;;;;;21.15;15.53;;;;;;;7.87;72.33;102077.30;1657959;86;21022;-78
2022/10/17 07:36:14;;;;;;;23.10;15.60;;;;;;;8.05;72.03;102080.95;1702542;83;21585;-78
2022/10/17 07:38:42;;;;;;;21.02;15.38;;;;;;;8.17;71.21;102073.85;1690871;84;20967;-79
2022/10/17 07:41:10;;;;;;;20.72;15.72;;;;;;;8.29;70.71;102083.00;1690173;84;20978;-79
2022/10/17 07:43:38;;;;;;;18.87;14.38;;;;;;;8.41;70.06;102090.43;1682120;85;22328;-78
2022/10/17 07:46:07;;;;;;;19.32;15.23;;;;;;;8.49;69.49;102085.70;1658311;86;21149;-79
2022/10/17 07:48:34;;;;;;;22.13;14.65;;;;;;;8.59;68.95;102088.32;1682358;84;21601;-79
2022/10/17 07:51:05;;;;;;;21.27;14.63;;;;;;;8.72;68.38;102078.09;1697652;83;21560;-79
2022/10/17 07:53:35;;;;;;;20.10;12.82;;;;;;;8.85;67.99;102077.92;1710970;83;20979;-79
2022/10/17 07:56:07;;;;;;;19.10;13.88;;;;;;;9.00;67.39;102071.12;1710063;84;21907;-79
2022/10/17 07:58:35;;;;;;;20.60;14.58;;;;;;;9.14;66.80;102070.47;1710839;83;21014;-79
2022/10/17 08:01:04;;;;;;;23.10;15.05;;;;;;;9.29;66.49;102062.32;1710617;83;21031;-78
2022/10/17 08:03:31;;;;;;;18.82;13.40;;;;;;;9.45;66.30;102068.09;1641152;85;21549;-78
2022/10/17 08:05:59;;;;;;;18.17;12.63;;;;;;;9.59;65.78;102063.48;1656679;86;21078;-78
2022/10/17 08:08:26;;;;;;;14.98;11.85;;;;;;;9.74;65.40;102062.72;1655653;86;21967;-79
2022/10/17 08:10:57;;;;;;;18.57;13.72;;;;;;;9.90;64.74;102068.58;1656520;85;21038;-79
2022/10/17 08:13:24;;;;;;;17.55;12.65;;;;;;;10.01;64.13;102059.66;1575082;88;21072;-79
2022/10/17 08:15:50;;;;;;;18.10;11.18;;;;;;;10.13;63.73;102060.34;1622317;88;21093;-78
2022/10/17 08:18:17;;;;;;;16.02;11.15;;;;;;;10.25;62.95;102054.50;1594220;88;21042;-78
2022/10/17 08:20:44;;;;;;;16.85;10.80;;;;;;;10.37;62.49;102054.80;1619176;86;22559;-78
2022/10/17 08:23:11;;;;;;;16.85;10.95;;;;;;;10.47;61.65;102059.52;1676941;85;20958;-80
2022/10/17 08:25:38;;;;;;;15.05;11.73;;;;;;;10.57;61.36;102062.06;1641379;86;21526;-79
2022/10/17 08:28:06;;;;;;;13.93;10.78;;;;;;;10.66;60.78;102058.56;1676673;85;21013;-80
2022/10/17 08:30:32;;;;;;;15.65;11.05;;;;;;;10.75;60.70;102052.78;1649140;86;21037;-78
2022/10/17 08:32:59;;;;;;;16.65;10.78;;;;;;;10.94;60.71;102055.30;1676579;85;22327;-80
2022/10/17 08:35:26;;;;;;;15.85;10.08;;;;;;;11.11;60.34;102066.66;1627765;87;21524;-78
2022/10/17 08:37:52;;;;;;;18.00;10.50;;;;;;;11.30;59.78;102066.51;1595968;88;21097;-78
2022/10/17 08:40:24;;;;;;;15.15;10.00;;;;;;;11.46;59.09;102072.62;1632878;87;20989;-77
2022/10/17 08:43:14;;;;;;;15.68;11.03;;;;;;;11.57;58.23;102074.67;1648997;86;21400;-75
2022/10/17 08:45:50;;;;;;;15.98;10.55;;;;;;;11.70;57.63;102076.17;1648924;86;22392;-76
2022/10/17 08:48:20;;;;;;;17.10;10.28;;;;;;;11.81;57.25;102079.09;1649409;86;21020;-79
2022/10/17 08:51:13;;;;;;;13.48;10.08;;;;;;;11.91;57.18;102070.99;1649735;86;21077;-77
2022/10/17 08:53:50;;;;;;;14.30;9.80;;;;;;;12.07;56.53;102058.19;1656980;85;21083;-79
2022/10/17 08:56:24;;;;;;;15.05;9.75;;;;;;;12.24;56.33;102056.22;1642516;86;21455;-79
2022/10/17 08:58:51;;;;;;;15.05;10.40;;;;;;;12.45;55.45;102041.30;1650737;85;22474;-82
2022/10/17 09:01:36;;;;;;;13.83;10.38;;;;;;;12.59;55.05;102040.85;1648001;86;21055;-82
2022/10/17 09:04:28;;;;;;;14.18;9.58;;;;;;;12.78;55.06;102038.39;1672739;85;20977;-80
2022/10/17 09:07:06;;;;;;;14.30;8.73;;;;;;;12.99;53.44;102045.00;1658283;85;21049;-82
2022/10/17 09:10:28;;;;;;;11.68;7.97;;;;;;;13.04;51.67;102045.58;1649151;86;21048;-82
2022/10/17 09:13:29;;;;;;;10.78;7.03;;;;;;;13.03;51.48;102037.25;1623353;88;22045;-78
2022/10/17 09:16:30;;;;;;;10.98;7.55;;;;;;;13.15;51.04;102048.88;1606233;89;21527;-82
2022/10/17 09:19:06;;;;;;;10.58;7.28;;;;;;;13.25;50.41;102035.91;1604529;88;21021;-80
2022/10/17 09:21:50;;;;;;;10.72;7.12;;;;;;;13.32;50.49;102042.05;1604032;88;21009;-77
2022/10/17 09:24:24;;;;;;;10.40;7.00;;;;;;;13.45;49.41;102043.42;1628048;86;21026;-77
2022/10/17 09:26:51;;;;;;;13.80;6.47;;;;;;;13.60;49.25;102041.08;1640856;85;21978;-78
2022/10/17 09:29:21;;;;;;;14.00;6.50;;;;;;;13.76;48.86;102039.61;1604638;88;20929;-78
2022/10/17 09:32:01;;;;;;;8.40;6.08;;;;;;;13.90;48.64;102030.73;1604308;89;21040;-77
2022/10/17 09:34:30;;;;;;;9.38;6.10;;;;;;;14.04;48.58;102026.18;1604441;88;21053;-81
2022/10/17 09:37:00;;;;;;;9.23;5.75;;;;;;;14.22;47.41;102020.09;1583779;88;21052;-76
2022/10/17 09:39:30;;;;;;;12.05;6.22;;;;;;;14.36;46.55;102021.79;1604942;88;21882;-77
2022/10/17 09:41:58;;;;;;;8.75;6.10;;;;;;;14.47;46.41;102026.39;1629874;88;21030;-81
2022/10/17 09:44:30;;;;;;;8.43;6.40;;;;;;;14.55;45.55;102016.08;1620495;87;21076;-83
2022/10/17 09:47:23;;;;;;;8.30;5.42;;;;;;;14.62;46.06;102009.37;1604265;88;21499;-81
2022/10/17 09:49:50;;;;;;;10.23;7.08;;;;;;;14.78;45.25;102007.83;1604721;89;21156;-81
2022/10/17 09:52:34;;;;;;;7.80;5.92;;;;;;;14.83;44.31;102009.18;1612636;86;21081;-81
2022/10/17 09:55:18;;;;;;;8.43;6.40;;;;;;;14.78;44.43;102013.15;1657535;86;21017;-80
2022/10/17 09:57:59;;;;;;;9.95;5.90;;;;;;;14.76;44.29;102005.73;1657235;86;21021;-79
2022/10/17 10:00:33;;;;;;;10.03;6.00;;;;;;;14.80;44.06;102003.24;1656754;86;21077;-79
2022/10/17 10:03:22;;;;;;;10.48;6.83;;;;;;;14.85;44.20;101999.27;1604855;88;21001;-80
2022/10/17 10:06:04;;;;;;;10.15;6.87;;;;;;;15.04;44.07;101995.30;1585858;89;21187;-79
2022/10/17 10:08:51;;;;;;;9.88;6.72;;;;;;;15.21;43.51;102003.39;1608269;89;21550;-80
2022/10/17 10:11:38;;;;;;;10.32;6.80;;;;;;;15.34;43.42;102007.69;1607629;89;21504;-80
2022/10/17 10:14:32;;;;;;;10.82;6.00;;;;;;;15.51;43.31;102001.61;1609185;89;21057;-82
2022/10/17 10:17:04;;;;;;;10.82;7.65;;;;;;;15.70;43.73;102001.97;1605679;88;21041;-81
2022/10/17 10:19:37;;;;;;;10.30;6.83;;;;;;;15.93;42.63;101997.58;1631233;87;21437;-78
2022/10/17 10:22:15;;;;;;;14.73;6.53;;;;;;;15.95;41.89;101993.83;1632834;86;21061;-79
2022/10/17 10:24:42;;;;;;;10.32;7.10;;;;;;;16.00;41.58;101992.13;1634294;87;20993;-80
2022/10/17 10:27:15;;;;;;;7.87;6.17;;;;;;;16.09;41.40;101997.23;1634030;86;21101;-80
2022/10/17 10:29:50;;;;;;;9.10;6.45;;;;;;;16.14;41.17;101994.59;1634260;87;20985;-80
2022/10/17 10:32:27;;;;;;;10.43;7.20;;;;;;;16.20;41.22;101982.11;1633763;87;21854;-80
2022/10/17 10:35:10;;;;;;;12.45;7.08;;;;;;;16.34;41.56;101991.72;1613457;87;21053;-80
2022/10/17 10:37:41;;;;;;;8.90;6.58;;;;;;;16.48;41.00;101981.28;1629999;87;21041;-80
2022/10/17 10:40:46;;;;;;;11.15;6.55;;;;;;;16.57;40.01;101980.56;1634728;87;21013;-81
2022/10/17 10:43:37;;;;;;;10.45;7.55;;;;;;;16.71;40.17;101976.84;1634648;87;20997;-79
2022/10/17 10:46:07;;;;;;;9.95;7.30;;;;;;;16.84;39.86;101962.88;1612096;86;21943;-80
2022/10/17 10:48:37;;;;;;;10.05;7.03;;;;;;;17.03;39.94;101964.41;1606594;89;21748;-81
2022/10/17 10:51:11;;;;;;;10.35;7.03;;;;;;;17.19;39.48;101963.17;1588097;89;21001;-81
2022/10/17 10:53:53;;;;;;;11.08;7.40;;;;;;;17.31;39.05;101952.80;1631450;87;21534;-78
2022/10/17 10:56:42;;;;;;;10.13;6.75;;;;;;;17.34;38.50;101956.55;1633711;87;21064;-80
2022/10/17 10:59:24;;;;;;;9.70;6.70;;;;;;;17.41;38.73;101942.56;1633873;86;21480;-80
2022/10/17 11:02:02;;;;;;;7.95;5.67;;;;;;;17.53;38.97;101941.17;1633819;87;21131;-80
2022/10/17 11:04:56;;;;;;;11.15;7.08;;;;;;;17.63;38.33;101941.60;1633793;87;21041;-79
2022/10/17 11:07:37;;;;;;;8.30;6.78;;;;;;;17.68;37.83;101940.73;1630829;87;20981;-80
2022/10/17 11:10:47;;;;;;;10.98;6.65;;;;;;;17.80;37.56;101942.04;1639190;87;20943;-79
2022/10/17 11:13:23;;;;;;;11.93;7.12;;;;;;;17.83;37.37;101936.42;1591898;87;21994;-80
2022/10/17 11:16:20;;;;;;;8.15;5.67;;;;;;;17.94;37.34;101942.53;1614109;87;20950;-81
2022/10/17 11:18:52;;;;;;;7.70;5.20;;;;;;;18.02;36.47;101941.39;1614434;89;21033;-79
2022/10/17 11:21:29;;;;;;;10.50;5.92;;;;;;;18.04;36.23;101937.25;1614265;87;21030;-79
2022/10/17 11:24:01;;;;;;;7.62;5.67;;;;;;;18.09;36.22;101936.38;1617410;88;21029;-80
2022/10/17 11:26:31;;;;;;;10.48;6.00;;;;;;;18.10;35.88;101938.56;1606837;87;21805;-80
2022/10/17 11:29:01;;;;;;;13.15;6.35;;;;;;;18.11;36.18;101943.77;1640672;87;21047;-81
2022/10/17 11:31:34;;;;;;;12.35;7.37;;;;;;;18.22;36.73;101926.79;1640457;87;21046;-80
2022/10/17 11:34:08;;;;;;;9.20;5.97;;;;;;;18.35;37.13;101929.27;1640989;87;20963;-80
2022/10/17 11:36:39;;;;;;;8.43;5.53;;;;;;;18.53;35.86;101931.17;1640691;87;20991;-80
2022/10/17 11:39:30;;;;;;;8.95;5.47;;;;;;;18.59;35.49;101920.39;1640748;87;21906;-79
2022/10/17 11:42:02;;;;;;;7.90;5.40;;;;;;;18.70;35.28;101924.81;1638018;87;20987;-82
2022/10/17 11:44:38;;;;;;;9.80;6.33;;;;;;;18.87;34.64;101934.38;1618813;87;20982;-80